Terminal Aerodrome Forecast
Issued by NWS Upton, NY

Home | Current Version | Previous Version | Text Only | Print | Product List | Glossary On
Versions: 1 2 3 4 5 6 7 8 9 10 11 12 13 14 15 16 17 18 19 20 21 22 23 24 25 26 27 28 29 30 31 32 33 34 35
353
FTUS41 KOKX 171740
TAFISP
TAF
KISP 171740Z 1718/1818 12005KT 3SM -RA SCT025 OVC040
     FM172100 12007KT 3SM -RA BR SCT010 OVC020
     FM172300 11007KT 2SM -RA BR SCT006 OVC010
     FM180100 09008KT 1SM -RA BR OVC004
     FM180900 02006KT 1SM -RA BR OVC004
     FM181500 35009KT 3SM -RA BR BKN004 OVC008=

USA.gov is the U.S. government's official web portal to all federal, state and local government web resources and services.